sensor_id;sensor_type;location;lat;lon;timestamp;pressure;altitude;pressure_sealevel;temperature;humidity
70921;BME280;58572;48.110;19.838;2023-04-09T00:01:42;98324.44;;;5.00;68.41
70921;BME280;58572;48.110;19.838;2023-04-09T00:04:09;98327.72;;;5.02;68.78
70921;BME280;58572;48.110;19.838;2023-04-09T00:06:36;98322.00;;;4.75;70.03
70921;BME280;58572;48.110;19.838;2023-04-09T00:09:04;98320.81;;;4.94;69.12
70921;BME280;58572;48.110;19.838;2023-04-09T00:11:31;98322.47;;;4.72;72.65
70921;BME280;58572;48.110;19.838;2023-04-09T00:13:58;98322.47;;;4.37;76.38
70921;BME280;58572;48.110;19.838;2023-04-09T00:16:25;98322.00;;;4.52;72.56
70921;BME280;58572;48.110;19.838;2023-04-09T00:18:52;98244.16;;;4.03;75.88
70921;BME280;58572;48.110;19.838;2023-04-09T00:21:20;98336.41;;;4.34;76.15
70921;BME280;58572;48.110;19.838;2023-04-09T00:23:47;98328.56;;;4.79;71.53
70921;BME280;58572;48.110;19.838;2023-04-09T00:26:16;98240.75;;;4.78;68.52
70921;BME280;58572;48.110;19.838;2023-04-09T00:28:43;98319.59;;;5.37;67.71
70921;BME280;58572;48.110;19.838;2023-04-09T00:31:10;98321.91;;;5.45;67.38
70921;BME280;58572;48.110;19.838;2023-04-09T00:33:37;98330.72;;;5.40;67.33
70921;BME280;58572;48.110;19.838;2023-04-09T00:36:05;98320.84;;;5.46;67.09
70921;BME280;58572;48.110;19.838;2023-04-09T00:38:32;98320.94;;;5.51;66.78
70921;BME280;58572;48.110;19.838;2023-04-09T00:40:59;98287.47;;;5.35;66.58
70921;BME280;58572;48.110;19.838;2023-04-09T00:43:27;98326.00;;;5.48;66.60
70921;BME280;58572;48.110;19.838;2023-04-09T00:45:54;98330.66;;;5.52;66.78
70921;BME280;58572;48.110;19.838;2023-04-09T00:48:21;98209.41;;;4.48;67.30
70921;BME280;58572;48.110;19.838;2023-04-09T00:50:48;98331.38;;;4.37;76.80
70921;BME280;58572;48.110;19.838;2023-04-09T00:53:16;98334.41;;;4.29;75.17
70921;BME280;58572;48.110;19.838;2023-04-09T00:55:43;98333.38;;;4.77;70.84
70921;BME280;58572;48.110;19.838;2023-04-09T00:58:11;98289.16;;;3.96;78.55
70921;BME280;58572;48.110;19.838;2023-04-09T01:00:39;98335.19;;;4.18;80.25
70921;BME280;58572;48.110;19.838;2023-04-09T01:03:06;98336.69;;;4.14;80.96
70921;BME280;58572;48.110;19.838;2023-04-09T01:05:39;98334.16;;;4.19;80.20
70921;BME280;58572;48.110;19.838;2023-04-09T01:08:13;98335.03;;;4.13;81.22
70921;BME280;58572;48.110;19.838;2023-04-09T01:10:47;98320.84;;;4.47;76.80
70921;BME280;58572;48.110;19.838;2023-04-09T01:13:17;98327.03;;;4.71;74.57
70921;BME280;58572;48.110;19.838;2023-04-09T01:15:48;98333.81;;;4.86;74.28
70921;BME280;58572;48.110;19.838;2023-04-09T01:18:21;98328.00;;;5.40;69.14
70921;BME280;58572;48.110;19.838;2023-04-09T01:20:56;98322.09;;;5.55;68.19
70921;BME280;58572;48.110;19.838;2023-04-09T01:23:33;98321.91;;;5.45;68.22
70921;BME280;58572;48.110;19.838;2023-04-09T01:26:09;98283.28;;;5.28;68.06
70921;BME280;58572;48.110;19.838;2023-04-09T01:28:42;98318.00;;;5.53;67.45
70921;BME280;58572;48.110;19.838;2023-04-09T01:31:12;98317.56;;;5.44;67.81
70921;BME280;58572;48.110;19.838;2023-04-09T01:33:40;98322.38;;;5.42;67.91
70921;BME280;58572;48.110;19.838;2023-04-09T01:36:08;98304.09;;;5.44;67.19
70921;BME280;58572;48.110;19.838;2023-04-09T01:38:38;98215.03;;;4.59;68.37
70921;BME280;58572;48.110;19.838;2023-04-09T01:41:07;98244.06;;;4.57;69.35
70921;BME280;58572;48.110;19.838;2023-04-09T01:43:36;98319.69;;;5.42;67.95
70921;BME280;58572;48.110;19.838;2023-04-09T01:46:05;98276.25;;;5.27;66.85
70921;BME280;58572;48.110;19.838;2023-04-09T01:48:33;98312.75;;;5.46;67.61
70921;BME280;58572;48.110;19.838;2023-04-09T01:51:00;98320.94;;;5.51;67.14
70921;BME280;58572;48.110;19.838;2023-04-09T01:53:27;98311.31;;;5.55;67.18
70921;BME280;58572;48.110;19.838;2023-04-09T01:55:55;98311.44;;;5.49;67.23
70921;BME280;58572;48.110;19.838;2023-04-09T01:58:25;98316.56;;;5.22;68.59
70921;BME280;58572;48.110;19.838;2023-04-09T02:00:55;98317.03;;;5.19;68.77
70921;BME280;58572;48.110;19.838;2023-04-09T02:03:32;98320.56;;;5.07;69.57
70921;BME280;58572;48.110;19.838;2023-04-09T02:06:06;98320.84;;;4.47;75.35
70921;BME280;58572;48.110;19.838;2023-04-09T02:08:35;98325.53;;;4.64;73.16
70921;BME280;58572;48.110;19.838;2023-04-09T02:11:04;98324.47;;;4.53;76.36
70921;BME280;58572;48.110;19.838;2023-04-09T02:13:36;98264.59;;;3.93;76.66
70921;BME280;58572;48.110;19.838;2023-04-09T02:16:05;98320.78;;;5.06;71.00
70921;BME280;58572;48.110;19.838;2023-04-09T02:18:34;98311.78;;;5.52;68.16
70921;BME280;58572;48.110;19.838;2023-04-09T02:21:02;98320.03;;;5.45;67.86
70921;BME280;58572;48.110;19.838;2023-04-09T02:23:30;98305.16;;;5.43;67.75
70921;BME280;58572;48.110;19.838;2023-04-09T02:25:58;98317.88;;;5.59;67.42
70921;BME280;58572;48.110;19.838;2023-04-09T02:28:25;98323.59;;;5.63;67.07
70921;BME280;58572;48.110;19.838;2023-04-09T02:30:52;98318.81;;;5.53;67.45
70921;BME280;58572;48.110;19.838;2023-04-09T02:33:19;98319.88;;;5.52;67.37
70921;BME280;58572;48.110;19.838;2023-04-09T02:35:47;98315.16;;;5.59;67.13
70921;BME280;58572;48.110;19.838;2023-04-09T02:38:14;98316.91;;;5.65;66.63
70921;BME280;58572;48.110;19.838;2023-04-09T02:40:41;98272.84;;;5.31;66.28
70921;BME280;58572;48.110;19.838;2023-04-09T02:43:09;98319.50;;;5.60;67.02
70921;BME280;58572;48.110;19.838;2023-04-09T02:45:36;98320.31;;;5.61;67.03
70921;BME280;58572;48.110;19.838;2023-04-09T02:48:03;98325.75;;;5.49;67.25
70921;BME280;58572;48.110;19.838;2023-04-09T02:50:30;98316.66;;;5.38;67.78
70921;BME280;58572;48.110;19.838;2023-04-09T02:52:58;98319.88;;;5.52;67.18
70921;BME280;58572;48.110;19.838;2023-04-09T02:55:26;98315.41;;;5.58;67.00
70921;BME280;58572;48.110;19.838;2023-04-09T02:57:53;98316.03;;;5.48;67.30
70921;BME280;58572;48.110;19.838;2023-04-09T03:00:20;98295.25;;;5.08;68.00
70921;BME280;58572;48.110;19.838;2023-04-09T03:02:47;98314.25;;;5.54;67.35
70921;BME280;58572;48.110;19.838;2023-04-09T03:05:14;98310.16;;;5.51;67.16
70921;BME280;58572;48.110;19.838;2023-04-09T03:07:41;98318.81;;;5.53;67.23
70921;BME280;58572;48.110;19.838;2023-04-09T03:10:10;98316.81;;;5.60;66.87
70921;BME280;58572;48.110;19.838;2023-04-09T03:12:36;98315.88;;;5.55;67.20
70921;BME280;58572;48.110;19.838;2023-04-09T03:15:04;98313.75;;;5.28;68.50
70921;BME280;58572;48.110;19.838;2023-04-09T03:17:32;98317.00;;;5.42;67.72
70921;BME280;58572;48.110;19.838;2023-04-09T03:19:59;98310.63;;;5.48;67.22
70921;BME280;58572;48.110;19.838;2023-04-09T03:22:25;97992.81;;;3.36;67.53
70921;BME280;58572;48.110;19.838;2023-04-09T03:24:52;98306.38;;;5.24;68.10
70921;BME280;58572;48.110;19.838;2023-04-09T03:27:21;98238.38;;;4.93;67.59
70921;BME280;58572;48.110;19.838;2023-04-09T03:29:48;98314.13;;;5.08;69.65
70921;BME280;58572;48.110;19.838;2023-04-09T03:32:15;98317.91;;;4.84;69.94
70921;BME280;58572;48.110;19.838;2023-04-09T03:34:42;98312.59;;;5.24;68.43
70921;BME280;58572;48.110;19.838;2023-04-09T03:37:09;98310.44;;;5.38;67.92
70921;BME280;58572;48.110;19.838;2023-04-09T03:39:36;98315.94;;;5.43;67.45
70921;BME280;58572;48.110;19.838;2023-04-09T03:42:03;98319.19;;;4.70;73.85
70921;BME280;58572;48.110;19.838;2023-04-09T03:44:31;98317.78;;;4.32;78.45
70921;BME280;58572;48.110;19.838;2023-04-09T03:46:58;98318.97;;;4.83;71.64
70921;BME280;58572;48.110;19.838;2023-04-09T03:49:25;98317.25;;;5.29;68.80
70921;BME280;58572;48.110;19.838;2023-04-09T03:51:52;98313.16;;;5.14;69.32
70921;BME280;58572;48.110;19.838;2023-04-09T03:54:19;98225.34;;;4.38;69.81
70921;BME280;58572;48.110;19.838;2023-04-09T03:56:46;98323.53;;;4.59;73.38
70921;BME280;58572;48.110;19.838;2023-04-09T03:59:13;98285.50;;;4.56;70.57
70921;BME280;58572;48.110;19.838;2023-04-09T04:01:41;98325.03;;;4.90;69.96
70921;BME280;58572;48.110;19.838;2023-04-09T04:04:08;98327.81;;;5.07;68.75
70921;BME280;58572;48.110;19.838;2023-04-09T04:06:36;98329.03;;;4.29;75.33
70921;BME280;58572;48.110;19.838;2023-04-09T04:09:03;98333.63;;;3.69;79.01
70921;BME280;58572;48.110;19.838;2023-04-09T04:11:30;98327.13;;;4.18;74.61
70921;BME280;58572;48.110;19.838;2023-04-09T04:13:57;98261.75;;;3.76;75.54
70921;BME280;58572;48.110;19.838;2023-04-09T04:16:24;98329.28;;;3.98;78.04
70921;BME280;58572;48.110;19.838;2023-04-09T04:18:52;98331.75;;;4.11;77.54
70921;BME280;58572;48.110;19.838;2023-04-09T04:21:19;98337.00;;;3.64;81.49
70921;BME280;58572;48.110;19.838;2023-04-09T04:23:46;98334.56;;;4.04;77.61
70921;BME280;58572;48.110;19.838;2023-04-09T04:26:14;98333.69;;;4.22;77.32
70921;BME280;58572;48.110;19.838;2023-04-09T04:28:40;98332.13;;;4.14;78.38
70921;BME280;58572;48.110;19.838;2023-04-09T04:31:08;98271.91;;;3.74;79.03
70921;BME280;58572;48.110;19.838;2023-04-09T04:33:35;98336.03;;;4.30;75.26
70921;BME280;58572;48.110;19.838;2023-04-09T04:36:05;98331.00;;;4.34;76.42
70921;BME280;58572;48.110;19.838;2023-04-09T04:38:32;98333.59;;;4.75;72.21
70921;BME280;58572;48.110;19.838;2023-04-09T04:41:00;98342.09;;;5.31;69.25
70921;BME280;58572;48.110;19.838;2023-04-09T04:43:26;98332.84;;;5.27;69.38
70921;BME280;58572;48.110;19.838;2023-04-09T04:45:54;98330.03;;;5.33;68.82
70921;BME280;58572;48.110;19.838;2023-04-09T04:48:21;98363.41;;;5.44;68.15
70921;BME280;58572;48.110;19.838;2023-04-09T04:50:54;98334.94;;;5.36;68.42
70921;BME280;58572;48.110;19.838;2023-04-09T04:53:23;98345.31;;;5.56;67.71
70921;BME280;58572;48.110;19.838;2023-04-09T04:55:50;98325.19;;;5.47;67.44
70921;BME280;58572;48.110;19.838;2023-04-09T04:58:17;98342.31;;;5.41;68.67
70921;BME280;58572;48.110;19.838;2023-04-09T05:00:44;98347.53;;;4.84;77.07
70921;BME280;58572;48.110;19.838;2023-04-09T05:03:12;98350.00;;;4.74;73.52
70921;BME280;58572;48.110;19.838;2023-04-09T05:05:39;98211.66;;;4.16;71.34
70921;BME280;58572;48.110;19.838;2023-04-09T05:08:06;98354.66;;;4.90;74.31
70921;BME280;58572;48.110;19.838;2023-04-09T05:10:34;98355.25;;;4.92;72.55
70921;BME280;58572;48.110;19.838;2023-04-09T05:13:01;98307.47;;;4.99;72.90
70921;BME280;58572;48.110;19.838;2023-04-09T05:15:29;98350.91;;;5.66;68.53
70921;BME280;58572;48.110;19.838;2023-04-09T05:17:56;98356.50;;;5.76;67.61
70921;BME280;58572;48.110;19.838;2023-04-09T05:20:26;98354.44;;;5.95;66.62
70921;BME280;58572;48.110;19.838;2023-04-09T05:22:53;98345.88;;;5.87;66.61
70921;BME280;58572;48.110;19.838;2023-04-09T05:25:20;98346.94;;;5.97;66.71
70921;BME280;58572;48.110;19.838;2023-04-09T05:27:48;98366.81;;;5.39;69.60
70921;BME280;58572;48.110;19.838;2023-04-09T05:30:15;98358.78;;;5.96;66.99
70921;BME280;58572;48.110;19.838;2023-04-09T05:32:42;98362.31;;;5.57;73.80
70921;BME280;58572;48.110;19.838;2023-04-09T05:35:09;98359.84;;;5.55;70.79
70921;BME280;58572;48.110;19.838;2023-04-09T05:37:36;98360.84;;;6.06;66.87
70921;BME280;58572;48.110;19.838;2023-04-09T05:40:04;98370.06;;;5.82;69.05
70921;BME280;58572;48.110;19.838;2023-04-09T05:42:34;98370.06;;;5.53;75.03
70921;BME280;58572;48.110;19.838;2023-04-09T05:45:04;98373.34;;;5.84;69.12
70921;BME280;58572;48.110;19.838;2023-04-09T05:47:31;98372.19;;;5.80;75.97
70921;BME280;58572;48.110;19.838;2023-04-09T05:49:58;98375.06;;;6.01;73.44
70921;BME280;58572;48.110;19.838;2023-04-09T05:52:26;98372.63;;;5.60;76.88
70921;BME280;58572;48.110;19.838;2023-04-09T05:54:53;98375.56;;;5.98;72.54
70921;BME280;58572;48.110;19.838;2023-04-09T05:57:20;98376.75;;;5.91;76.16
70921;BME280;58572;48.110;19.838;2023-04-09T05:59:47;98372.69;;;5.76;73.26
70921;BME280;58572;48.110;19.838;2023-04-09T06:02:15;98386.59;;;5.57;76.82
70921;BME280;58572;48.110;19.838;2023-04-09T06:04:42;98384.69;;;5.57;77.11
70921;BME280;58572;48.110;19.838;2023-04-09T06:07:10;98373.34;;;6.40;70.89
70921;BME280;58572;48.110;19.838;2023-04-09T06:09:37;98384.50;;;6.61;68.90
70921;BME280;58572;48.110;19.838;2023-04-09T06:12:04;98384.91;;;6.53;69.40
70921;BME280;58572;48.110;19.838;2023-04-09T06:14:31;98387.34;;;6.37;72.24
70921;BME280;58572;48.110;19.838;2023-04-09T06:16:58;98356.16;;;6.47;68.91
70921;BME280;58572;48.110;19.838;2023-04-09T06:19:26;98388.59;;;6.47;68.79
70921;BME280;58572;48.110;19.838;2023-04-09T06:21:53;98381.03;;;6.82;73.85
70921;BME280;58572;48.110;19.838;2023-04-09T06:24:20;98357.66;;;6.37;69.05
70921;BME280;58572;48.110;19.838;2023-04-09T06:26:47;98386.94;;;6.46;71.83
70921;BME280;58572;48.110;19.838;2023-04-09T06:29:14;98390.28;;;6.86;68.14
70921;BME280;58572;48.110;19.838;2023-04-09T06:31:41;98391.50;;;6.95;67.81
70921;BME280;58572;48.110;19.838;2023-04-09T06:34:09;98393.44;;;7.17;68.32
70921;BME280;58572;48.110;19.838;2023-04-09T06:36:37;98395.06;;;6.79;68.69
70921;BME280;58572;48.110;19.838;2023-04-09T06:39:05;98395.94;;;6.85;68.73
70921;BME280;58572;48.110;19.838;2023-04-09T06:41:32;98399.53;;;6.90;68.67
70921;BME280;58572;48.110;19.838;2023-04-09T06:43:59;98402.91;;;6.97;68.76
70921;BME280;58572;48.110;19.838;2023-04-09T06:46:26;98398.56;;;6.96;69.64
70921;BME280;58572;48.110;19.838;2023-04-09T06:48:53;98396.56;;;7.09;70.47
70921;BME280;58572;48.110;19.838;2023-04-09T06:51:20;98401.34;;;7.01;71.91
70921;BME280;58572;48.110;19.838;2023-04-09T06:53:49;98360.78;;;7.01;70.93
70921;BME280;58572;48.110;19.838;2023-04-09T06:56:16;98399.38;;;7.52;68.05
70921;BME280;58572;48.110;19.838;2023-04-09T06:58:43;98400.38;;;7.90;68.12
70921;BME280;58572;48.110;19.838;2023-04-09T07:01:11;98399.50;;;7.41;68.37
70921;BME280;58572;48.110;19.838;2023-04-09T07:03:37;98404.09;;;7.23;69.50
70921;BME280;58572;48.110;19.838;2023-04-09T07:06:05;98413.59;;;7.26;69.20
70921;BME280;58572;48.110;19.838;2023-04-09T07:08:31;98400.81;;;7.82;67.16
70921;BME280;58572;48.110;19.838;2023-04-09T07:11:00;98405.16;;;7.61;68.26
70921;BME280;58572;48.110;19.838;2023-04-09T07:13:28;98401.16;;;8.12;66.43
70921;BME280;58572;48.110;19.838;2023-04-09T07:15:55;98398.44;;;8.12;66.84
70921;BME280;58572;48.110;19.838;2023-04-09T07:18:22;98408.72;;;8.10;67.27
70921;BME280;58572;48.110;19.838;2023-04-09T07:20:51;98410.03;;;8.08;68.12
70921;BME280;58572;48.110;19.838;2023-04-09T07:23:18;98409.03;;;8.36;66.63
70921;BME280;58572;48.110;19.838;2023-04-09T07:25:45;98413.34;;;7.66;72.25
70921;BME280;58572;48.110;19.838;2023-04-09T07:28:14;98414.41;;;7.87;69.04
70921;BME280;58572;48.110;19.838;2023-04-09T07:30:41;98415.66;;;7.57;68.70
70921;BME280;58572;48.110;19.838;2023-04-09T07:33:08;98418.53;;;8.16;68.64
70921;BME280;58572;48.110;19.838;2023-04-09T07:35:35;98407.50;;;8.77;65.84
70921;BME280;58572;48.110;19.838;2023-04-09T07:38:02;98413.16;;;7.73;67.24
70921;BME280;58572;48.110;19.838;2023-04-09T07:40:29;98414.34;;;8.30;69.39
70921;BME280;58572;48.110;19.838;2023-04-09T07:42:56;98414.66;;;7.63;68.23
70921;BME280;58572;48.110;19.838;2023-04-09T07:45:25;98424.03;;;7.99;67.51
70921;BME280;58572;48.110;19.838;2023-04-09T07:47:52;98392.06;;;8.23;67.11
70921;BME280;58572;48.110;19.838;2023-04-09T07:50:19;98417.75;;;7.94;68.62
70921;BME280;58572;48.110;19.838;2023-04-09T07:52:46;98424.16;;;7.88;67.86
70921;BME280;58572;48.110;19.838;2023-04-09T07:55:13;98425.88;;;8.21;67.79
70921;BME280;58572;48.110;19.838;2023-04-09T07:57:40;98424.06;;;8.80;66.33
70921;BME280;58572;48.110;19.838;2023-04-09T08:00:10;98426.75;;;8.26;67.83
70921;BME280;58572;48.110;19.838;2023-04-09T08:02:39;98424.34;;;9.16;66.63
70921;BME280;58572;48.110;19.838;2023-04-09T08:05:07;98423.41;;;9.00;65.38
70921;BME280;58572;48.110;19.838;2023-04-09T08:07:34;98419.22;;;9.62;64.04
70921;BME280;58572;48.110;19.838;2023-04-09T08:10:02;98422.91;;;9.40;64.75
70921;BME280;58572;48.110;19.838;2023-04-09T08:12:29;98417.03;;;9.58;64.57
70921;BME280;58572;48.110;19.838;2023-04-09T08:14:56;98364.84;;;8.62;65.81
70921;BME280;58572;48.110;19.838;2023-04-09T08:17:23;98416.31;;;9.36;65.21
70921;BME280;58572;48.110;19.838;2023-04-09T08:19:51;98304.97;;;9.11;66.71
70921;BME280;58572;48.110;19.838;2023-04-09T08:22:19;98374.66;;;9.57;64.15
70921;BME280;58572;48.110;19.838;2023-04-09T08:24:50;98416.72;;;9.50;64.25
70921;BME280;58572;48.110;19.838;2023-04-09T08:27:18;98422.69;;;9.52;64.44
70921;BME280;58572;48.110;19.838;2023-04-09T08:29:46;98420.72;;;9.42;64.48
70921;BME280;58572;48.110;19.838;2023-04-09T08:32:14;98422.03;;;8.98;64.57
70921;BME280;58572;48.110;19.838;2023-04-09T08:34:41;98428.84;;;9.37;64.22
70921;BME280;58572;48.110;19.838;2023-04-09T08:37:10;98313.94;;;8.69;63.39
70921;BME280;58572;48.110;19.838;2023-04-09T08:39:37;98426.28;;;9.63;63.20
70921;BME280;58572;48.110;19.838;2023-04-09T08:42:05;98423.53;;;9.57;63.65
70921;BME280;58572;48.110;19.838;2023-04-09T08:44:33;98399.66;;;9.59;62.79
70921;BME280;58572;48.110;19.838;2023-04-09T08:47:01;98431.31;;;9.96;62.04
70921;BME280;58572;48.110;19.838;2023-04-09T08:49:34;98424.19;;;9.80;62.23
70921;BME280;58572;48.110;19.838;2023-04-09T08:52:02;98427.56;;;10.12;61.74
70921;BME280;58572;48.110;19.838;2023-04-09T08:54:30;98439.69;;;8.68;64.41
70921;BME280;58572;48.110;19.838;2023-04-09T08:56:58;98433.50;;;9.10;64.76
70921;BME280;58572;48.110;19.838;2023-04-09T08:59:25;98424.81;;;10.02;62.84
70921;BME280;58572;48.110;19.838;2023-04-09T09:02:06;98426.66;;;10.84;60.77
70921;BME280;58572;48.110;19.838;2023-04-09T09:04:43;98433.44;;;11.07;61.46
70921;BME280;58572;48.110;19.838;2023-04-09T09:07:11;98416.22;;;9.63;61.86
70921;BME280;58572;48.110;19.838;2023-04-09T09:09:56;98415.59;;;10.13;60.03
70921;BME280;58572;48.110;19.838;2023-04-09T09:12:31;98418.84;;;10.10;60.96
70921;BME280;58572;48.110;19.838;2023-04-09T09:14:58;98445.16;;;8.73;61.65
70921;BME280;58572;48.110;19.838;2023-04-09T09:17:25;98432.41;;;10.00;60.59
70921;BME280;58572;48.110;19.838;2023-04-09T09:19:52;98408.09;;;9.21;59.53
70921;BME280;58572;48.110;19.838;2023-04-09T09:22:20;98438.88;;;9.89;61.90
70921;BME280;58572;48.110;19.838;2023-04-09T09:24:47;98437.56;;;10.02;61.52
70921;BME280;58572;48.110;19.838;2023-04-09T09:30:19;98445.38;;;8.40;62.20
70921;BME280;58572;48.110;19.838;2023-04-09T09:32:50;98439.81;;;8.83;62.35
70921;BME280;58572;48.110;19.838;2023-04-09T09:35:17;98414.25;;;8.74;62.29
70921;BME280;58572;48.110;19.838;2023-04-09T09:37:44;98440.72;;;9.78;61.37
70921;BME280;58572;48.110;19.838;2023-04-09T09:40:25;98433.28;;;9.53;60.70
70921;BME280;58572;48.110;19.838;2023-04-09T09:42:53;98444.44;;;8.56;62.02
70921;BME280;58572;48.110;19.838;2023-04-09T09:45:23;98451.47;;;8.08;62.64
70921;BME280;58572;48.110;19.838;2023-04-09T09:47:51;98442.44;;;9.42;60.57
70921;BME280;58572;48.110;19.838;2023-04-09T09:50:19;98443.56;;;9.46;60.52
70921;BME280;58572;48.110;19.838;2023-04-09T09:52:52;98446.66;;;8.91;62.66
70921;BME280;58572;48.110;19.838;2023-04-09T09:55:22;98444.47;;;9.25;62.16
70921;BME280;58572;48.110;19.838;2023-04-09T09:57:51;98409.09;;;8.41;60.19
70921;BME280;58572;48.110;19.838;2023-04-09T10:00:23;98448.50;;;8.53;61.32
70921;BME280;58572;48.110;19.838;2023-04-09T10:02:55;98448.22;;;8.82;61.03
70921;BME280;58572;48.110;19.838;2023-04-09T10:05:23;98445.66;;;8.70;60.03
70921;BME280;58572;48.110;19.838;2023-04-09T10:07:53;98456.44;;;8.16;60.99
70921;BME280;58572;48.110;19.838;2023-04-09T10:10:21;98356.41;;;8.05;60.34
70921;BME280;58572;48.110;19.838;2023-04-09T10:12:49;98450.16;;;8.86;61.65
70921;BME280;58572;48.110;19.838;2023-04-09T10:15:18;98447.56;;;9.39;60.23
70921;BME280;58572;48.110;19.838;2023-04-09T10:17:47;98441.78;;;9.30;61.04
70921;BME280;58572;48.110;19.838;2023-04-09T10:20:20;98441.63;;;9.05;60.56
70921;BME280;58572;48.110;19.838;2023-04-09T10:22:51;98439.31;;;8.86;59.94
70921;BME280;58572;48.110;19.838;2023-04-09T10:25:19;98448.78;;;9.21;59.12
70921;BME280;58572;48.110;19.838;2023-04-09T10:27:58;98440.88;;;10.19;58.46
70921;BME280;58572;48.110;19.838;2023-04-09T10:30:32;98433.16;;;11.19;57.54
70921;BME280;58572;48.110;19.838;2023-04-09T10:33:14;98427.13;;;11.63;56.88
70921;BME280;58572;48.110;19.838;2023-04-09T10:35:45;98438.59;;;10.53;57.90
70921;BME280;58572;48.110;19.838;2023-04-09T10:38:13;98437.97;;;10.36;58.59
70921;BME280;58572;48.110;19.838;2023-04-09T10:40:40;98431.75;;;9.73;56.90
70921;BME280;58572;48.110;19.838;2023-04-09T10:43:08;98431.50;;;10.47;59.61
70921;BME280;58572;48.110;19.838;2023-04-09T10:45:40;98424.47;;;11.02;58.47
70921;BME280;58572;48.110;19.838;2023-04-09T10:48:10;98426.09;;;11.03;58.63
70921;BME280;58572;48.110;19.838;2023-04-09T10:50:42;98422.56;;;11.17;59.11
70921;BME280;58572;48.110;19.838;2023-04-09T10:53:20;98425.81;;;11.09;58.62
70921;BME280;58572;48.110;19.838;2023-04-09T10:55:50;98423.63;;;11.16;58.75
70921;BME280;58572;48.110;19.838;2023-04-09T10:58:18;98426.09;;;11.08;59.09
70921;BME280;58572;48.110;19.838;2023-04-09T11:00:47;98426.91;;;11.13;58.36
70921;BME280;58572;48.110;19.838;2023-04-09T11:03:25;98428.81;;;10.98;58.58
70921;BME280;58572;48.110;19.838;2023-04-09T11:05:58;98432.59;;;10.56;59.21
70921;BME280;58572;48.110;19.838;2023-04-09T11:08:30;98415.13;;;10.32;57.72
70921;BME280;58572;48.110;19.838;2023-04-09T11:10:57;98423.94;;;10.79;58.65
70921;BME280;58572;48.110;19.838;2023-04-09T11:13:26;98422.25;;;10.48;57.83
70921;BME280;58572;48.110;19.838;2023-04-09T11:15:53;98361.19;;;9.78;59.09
70921;BME280;58572;48.110;19.838;2023-04-09T11:18:21;98427.72;;;10.53;58.65
70921;BME280;58572;48.110;19.838;2023-04-09T11:20:48;98429.91;;;10.86;57.81
70921;BME280;58572;48.110;19.838;2023-04-09T11:23:17;98436.94;;;10.47;58.08
70921;BME280;58572;48.110;19.838;2023-04-09T11:25:48;98431.91;;;10.13;59.00
70921;BME280;58572;48.110;19.838;2023-04-09T11:28:15;98426.81;;;10.32;59.46
70921;BME280;58572;48.110;19.838;2023-04-09T11:30:43;98426.03;;;10.37;58.83
70921;BME280;58572;48.110;19.838;2023-04-09T11:33:11;98421.41;;;10.37;59.80
70921;BME280;58572;48.110;19.838;2023-04-09T11:35:38;98367.22;;;10.05;60.34
70921;BME280;58572;48.110;19.838;2023-04-09T11:38:06;98431.53;;;10.67;58.60
70921;BME280;58572;48.110;19.838;2023-04-09T11:40:35;98425.56;;;10.80;58.01
70921;BME280;58572;48.110;19.838;2023-04-09T11:43:02;98427.72;;;11.09;57.58
70921;BME280;58572;48.110;19.838;2023-04-09T11:45:30;98412.22;;;11.04;57.91
70921;BME280;58572;48.110;19.838;2023-04-09T11:48:03;98425.19;;;11.68;56.21
70921;BME280;58572;48.110;19.838;2023-04-09T11:50:33;98358.09;;;10.93;55.26
70921;BME280;58572;48.110;19.838;2023-04-09T11:53:14;98437.75;;;9.80;62.59
70921;BME280;58572;48.110;19.838;2023-04-09T11:55:46;98427.66;;;11.60;59.85
70921;BME280;58572;48.110;19.838;2023-04-09T11:58:13;98429.91;;;11.17;59.63
70921;BME280;58572;48.110;19.838;2023-04-09T12:00:41;98445.94;;;10.73;63.20
70921;BME280;58572;48.110;19.838;2023-04-09T12:03:09;98438.06;;;10.81;63.60
70921;BME280;58572;48.110;19.838;2023-04-09T12:05:36;98437.78;;;10.63;62.83
70921;BME280;58572;48.110;19.838;2023-04-09T12:08:05;98439.22;;;10.08;65.30
70921;BME280;58572;48.110;19.838;2023-04-09T12:10:35;98428.28;;;11.01;62.06
70921;BME280;58572;48.110;19.838;2023-04-09T12:13:05;98439.69;;;10.82;64.76
70921;BME280;58572;48.110;19.838;2023-04-09T12:15:34;98436.44;;;10.75;63.07
70921;BME280;58572;48.110;19.838;2023-04-09T12:18:02;98441.88;;;11.11;62.05
70921;BME280;58572;48.110;19.838;2023-04-09T12:20:32;98441.22;;;10.33;64.13
70921;BME280;58572;48.110;19.838;2023-04-09T12:23:01;98426.00;;;11.69;61.02
70921;BME280;58572;48.110;19.838;2023-04-09T12:25:29;98423.06;;;11.50;61.09
70921;BME280;58572;48.110;19.838;2023-04-09T12:27:57;98383.63;;;10.31;61.42
70921;BME280;58572;48.110;19.838;2023-04-09T12:30:25;98418.97;;;11.37;60.92
70921;BME280;58572;48.110;19.838;2023-04-09T12:32:53;98427.91;;;10.36;62.41
70921;BME280;58572;48.110;19.838;2023-04-09T12:35:21;98428.69;;;10.21;63.01
70921;BME280;58572;48.110;19.838;2023-04-09T12:37:48;98426.78;;;9.54;64.77
70921;BME280;58572;48.110;19.838;2023-04-09T12:40:18;98409.75;;;11.23;60.63
70921;BME280;58572;48.110;19.838;2023-04-09T12:42:47;98421.44;;;11.24;60.54
70921;BME280;58572;48.110;19.838;2023-04-09T12:45:15;98416.00;;;11.34;60.39
70921;BME280;58572;48.110;19.838;2023-04-09T12:47:44;98408.41;;;10.70;61.39
70921;BME280;58572;48.110;19.838;2023-04-09T12:50:12;98419.56;;;11.14;60.94
70921;BME280;58572;48.110;19.838;2023-04-09T12:52:39;98420.34;;;11.55;59.91
70921;BME280;58572;48.110;19.838;2023-04-09T12:55:07;98416.19;;;11.78;58.51
70921;BME280;58572;48.110;19.838;2023-04-09T12:57:36;98422.81;;;11.31;60.15
70921;BME280;58572;48.110;19.838;2023-04-09T13:00:05;98424.97;;;11.29;60.28
70921;BME280;58572;48.110;19.838;2023-04-09T13:02:32;98413.22;;;12.29;58.05
70921;BME280;58572;48.110;19.838;2023-04-09T13:05:01;98342.78;;;11.27;58.57
70921;BME280;58572;48.110;19.838;2023-04-09T13:07:28;98414.00;;;12.39;55.75